| time (UTC) | temp F | wind direction | speed knots | gust knots | rain 1hr in | rain 24hr in | rain mn in | humidity % | barometer mb |
| 20260904122019 | 73 | 344 | 2.6 | 3.5 | 0.00 | 0.00 | 0.00 | 97 | 1009.0 |
| 20260904120518 | 73 | 220 | 1.7 | 2.6 | 0.00 | 0.00 | 0.00 | 99 | 1008.7 |
| 20260904115014 | 72 | 3 | 2.6 | 2.6 | 0.00 | 0.00 | 0.00 | 99 | 1008.7 |
| 20260904113510 | 71 | 246 | 0.0 | 2.6 | 0.00 | 0.00 | 0.00 | 99 | 1009.1 |
| 20260904112006 | 71 | 20 | 0.0 | 1.7 | 0.00 | 0.00 | 0.00 | 99 | 1008.8 |
| 20260904110503 | 71 | 180 | 0.0 | 2.6 | 0.00 | 0.00 | 0.00 | 99 | 1008.8 |
| 20260904104959 | 71 | 195 | 0.0 | 1.7 | 0.00 | 0.00 | 0.00 | 99 | 1008.8 |
| 20260904103457 | 70 | 172 | 0.0 | 1.7 | 0.00 | 0.00 | 0.00 | 99 | 1008.5 |
| 20260904101955 | 70 | 350 | 0.0 | 1.7 | 0.00 | 0.00 | 0.00 | 99 | 1008.5 |
| 20260904100455 | 70 | 195 | 0.0 | 2.6 | 0.00 | 0.00 | 0.00 | 99 | 1008.5 |
| 20260904094950 | 70 | 99 | 0.0 | 1.7 | 0.00 | 0.00 | 0.00 | 99 | 1008.3 |
| 20260904093449 | 70 | 15 | 0.0 | 0.0 | 0.00 | 0.00 | 0.00 | 99 | 1008.4 |
| 20260904091948 | 70 | 15 | 0.0 | 0.0 | 0.00 | 0.00 | 0.00 | 99 | 1008.3 |
| 20260904090445 | 70 | 15 | 0.0 | 0.9 | 0.00 | 0.00 | 0.00 | 99 | 1008.1 |
| 20260904084941 | 70 | 151 | 0.0 | 0.9 | 0.00 | 0.00 | 0.00 | 99 | 1008.3 |
| 20260904083440 | 70 | 90 | 0.0 | 0.9 | 0.00 | 0.00 | 0.00 | 99 | 1008.3 |
| 20260904081937 | 70 | 195 | 0.0 | 0.0 | 0.00 | 0.00 | 0.00 | 99 | 1008.3 |
| 20260904080435 | 70 | 170 | 0.0 | 1.7 | 0.00 | 0.00 | 0.00 | 99 | 1008.4 |
| 20260904074931 | 70 | 145 | 0.0 | 0.0 | 0.00 | 0.00 | 0.00 | 99 | 1008.2 |
| 20260904073429 | 70 | 90 | 0.0 | 0.0 | 0.00 | 0.00 | 0.00 | 99 | 1008.5 |
| 20260904071927 | 71 | 180 | 0.9 | 0.9 | 0.00 | 0.00 | 0.00 | 99 | 1008.8 |
| 20260904070422 | 71 | 175 | 0.0 | 1.7 | 0.00 | 0.00 | 0.00 | 99 | 1008.9 |
| 20260904064918 | 71 | 180 | 0.0 | 0.9 | 0.00 | 0.00 | 0.00 | 99 | 1008.9 |
| 20260904063412 | 71 | 180 | 0.0 | 2.6 | 0.00 | 0.00 | 0.00 | 99 | 1009.2 |
| 20260904061910 | 70 | 0 | 0.0 | 0.0 | 0.00 | 0.00 | 0.00 | 99 | 1009.1 |
| 20260904060410 | 70 | 54 | 0.0 | 1.7 | 0.00 | 0.00 | 0.00 | 99 | 1009.3 |
| 20260904054908 | 70 | 290 | 1.7 | 2.6 | 0.00 | 0.00 | 0.00 | 99 | 1009.3 |
| 20260904053404 | 70 | 194 | 2.6 | 2.6 | 0.00 | 0.00 | 0.00 | 99 | 1009.4 |
| 20260904051904 | 70 | 159 | 0.0 | 1.7 | 0.00 | 0.00 | 0.00 | 99 | 1009.8 |
| 20260904050402 | 71 | 168 | 1.7 | 2.6 | 0.00 | 0.00 | 0.00 | 99 | 1009.7 |
| 20260904044902 | 71 | 189 | 4.3 | 4.3 | 0.00 | 0.00 | 0.00 | 99 | 1009.9 |
| 20260904043358 | 71 | 175 | 0.0 | 2.6 | 0.00 | 0.00 | 0.00 | 99 | 1010.2 |
| 20260904041855 | 71 | 166 | 0.0 | 0.0 | 0.00 | 0.00 | 0.00 | 99 | 1010.3 |
| 20260904040353 | 71 | 270 | 0.0 | 1.7 | 0.00 | 0.00 | 0.00 | 99 | 1010.4 |
| 20260904034851 | 71 | 193 | 0.0 | 2.6 | 0.00 | 0.24 | 0.24 | 99 | 1010.1 |
| 20260904033350 | 71 | 148 | 0.0 | 1.7 | 0.00 | 0.24 | 0.24 | 99 | 1010.3 |
| 20260904031845 | 72 | 324 | 0.0 | 2.6 | 0.00 | 0.24 | 0.24 | 99 | 1010.5 |
| 20260904030344 | 72 | 190 | 1.7 | 1.7 | 0.00 | 0.24 | 0.24 | 99 | 1010.3 |
| 20260904024841 | 72 | 172 | 0.0 | 1.7 | 0.00 | 0.24 | 0.24 | 99 | 1010.3 |
| 20260904023340 | 72 | 189 | 4.3 | 4.3 | 0.00 | 0.24 | 0.24 | 99 | 1010.6 |
| 20260904021838 | 73 | 229 | 1.7 | 2.6 | 0.00 | 0.24 | 0.24 | 98 | 1010.8 |
| 20260904020335 | 73 | 209 | 0.9 | 2.6 | 0.00 | 0.24 | 0.24 | 98 | 1010.9 |
| 20260904014833 | 73 | 170 | 0.0 | 4.3 | 0.00 | 0.24 | 0.24 | 98 | 1010.9 |
| 20260904013332 | 73 | 255 | 0.0 | 2.6 | 0.00 | 0.24 | 0.24 | 98 | 1011.1 |
| 20260904011827 | 73 | 204 | 1.7 | 2.6 | 0.00 | 0.24 | 0.24 | 98 | 1011.3 |
| 20260904010326 | 73 | 255 | 0.0 | 1.7 | 0.00 | 0.24 | 0.24 | 97 | 1011.3 |
| 20260904004823 | 73 | 270 | 0.9 | 3.5 | 0.00 | 0.24 | 0.24 | 97 | 1011.1 |
| 20260904003322 | 73 | 206 | 0.9 | 3.5 | 0.00 | 0.24 | 0.24 | 97 | 1011.0 |
| 20260904001817 | 74 | 210 | 1.7 | 1.7 | 0.00 | 0.24 | 0.24 | 96 | 1010.7 |
| 20260904000313 | 74 | 229 | 0.0 | 1.7 | 0.00 | 0.24 | 0.24 | 95 | 1010.2 |
| 20260903234809 | 74 | 206 | 0.0 | 3.5 | 0.00 | 0.24 | 0.24 | 95 | 1010.2 |
| 20260903233303 | 75 | 182 | 2.6 | 2.6 | 0.00 | 0.24 | 0.24 | 94 | 1010.3 |
| 20260903231803 | 75 | 194 | 0.0 | 2.6 | 0.00 | 0.24 | 0.24 | 93 | 1010.2 |
| 20260903230259 | 76 | 186 | 0.0 | 1.7 | 0.00 | 0.24 | 0.24 | 92 | 1010.2 |
| 20260903224754 | 77 | 191 | 1.7 | 2.6 | 0.00 | 0.24 | 0.24 | 90 | 1010.4 |
| 20260903223249 | 78 | 203 | 0.9 | 2.6 | 0.00 | 0.24 | 0.24 | 87 | 1010.2 |
| 20260903221744 | 80 | 15 | 0.9 | 4.3 | 0.00 | 0.24 | 0.24 | 85 | 1010.3 |
| 20260903220242 | 81 | 255 | 0.0 | 5.2 | 0.00 | 0.24 | 0.24 | 84 | 1010.4 |
| 20260903214741 | 83 | 227 | 2.6 | 2.6 | 0.00 | 0.24 | 0.24 | 79 | 1010.3 |
| 20260903213239 | 82 | 189 | 3.5 | 3.5 | 0.00 | 0.24 | 0.24 | 80 | 1010.1 |
| 20260903211736 | 79 | 230 | 2.6 | 4.3 | 0.00 | 0.24 | 0.24 | 84 | 1010.4 |
| 20260903210236 | 81 | 187 | 0.9 | 2.6 | 0.00 | 0.24 | 0.24 | 82 | 1010.4 |
| 20260903204736 | 80 | 321 | 3.5 | 6.1 | 0.00 | 0.24 | 0.24 | 83 | 1010.3 |
| 20260903203235 | 80 | 321 | 0.0 | 4.3 | 0.00 | 0.24 | 0.24 | 82 | 1010.3 |
| 20260903201730 | 81 | 188 | 1.7 | 4.3 | 0.00 | 0.24 | 0.24 | 83 | 1010.7 |
| 20260903200226 | 82 | 198 | 7.0 | 8.7 | 0.00 | 0.24 | 0.24 | 80 | 1010.7 |
| 20260903194722 | 82 | 181 | 4.3 | 4.3 | 0.00 | 0.24 | 0.24 | 81 | 1010.7 |
| 20260903193219 | 83 | 239 | 1.7 | 2.6 | 0.00 | 0.24 | 0.24 | 79 | 1010.9 |
| 20260903191719 | 80 | 335 | 4.3 | 6.1 | 0.00 | 0.24 | 0.24 | 81 | 1011.2 |
| 20260903190214 | 80 | 151 | 0.0 | 6.1 | 0.00 | 0.24 | 0.24 | 81 | 1011.3 |
| 20260903184712 | 80 | 261 | 0.9 | 2.6 | 0.00 | 0.24 | 0.24 | 84 | 1011.6 |
| 20260903183208 | 80 | 254 | 1.7 | 5.2 | 0.00 | 0.24 | 0.24 | 83 | 1011.5 |
| 20260903181707 | 80 | 6 | 4.3 | 4.3 | 0.00 | 0.24 | 0.24 | 84 | 1011.3 |
| 20260903180203 | 82 | 211 | 2.6 | 6.1 | 0.00 | 0.24 | 0.24 | 80 | 1011.6 |
| 20260903174702 | 81 | 209 | 1.7 | 5.2 | 0.00 | 0.24 | 0.24 | 83 | 1011.6 |
| 20260903173200 | 80 | 220 | 0.0 | 7.0 | 0.00 | 0.24 | 0.24 | 86 | 1011.6 |
| 20260903171655 | 80 | 337 | 0.0 | 1.7 | 0.00 | 0.24 | 0.24 | 88 | 1011.8 |
| 20260903170152 | 77 | 209 | 2.6 | 7.0 | 0.00 | 0.24 | 0.24 | 91 | 1012.1 |
| 20260903164651 | 78 | 206 | 1.7 | 3.5 | 0.00 | 0.24 | 0.24 | 90 | 1011.9 |
| 20260903163149 | 76 | 195 | 0.9 | 5.2 | 0.00 | 0.24 | 0.24 | 92 | 1011.9 |
| 20260903161648 | 75 | 199 | 4.3 | 4.3 | 0.00 | 0.24 | 0.24 | 93 | 1011.7 |
| 20260903160144 | 75 | 204 | 1.7 | 4.3 | 0.00 | 0.24 | 0.24 | 92 | 1011.9 |
| 20260903154640 | 73 | 162 | 0.0 | 2.6 | 0.00 | 0.24 | 0.24 | 96 | 1011.8 |
| 20260903153138 | 72 | 202 | 3.5 | 5.2 | 0.00 | 0.24 | 0.24 | 98 | 1012.5 |
| 20260903151635 | 71 | 225 | 1.7 | 3.5 | 0.00 | 0.24 | 0.24 | 99 | 1012.6 |
| 20260903150132 | 71 | 276 | 1.7 | 2.6 | 0.00 | 0.24 | 0.24 | 99 | 1012.8 |
| 20260903144631 | 71 | 157 | 0.0 | 4.3 | 0.00 | 0.24 | 0.24 | 99 | 1012.9 |
| 20260903143131 | 71 | 175 | 2.6 | 7.0 | 0.00 | 0.24 | 0.24 | 99 | 1013.0 |
| 20260903141630 | 71 | 270 | 0.9 | 3.5 | 0.00 | 0.24 | 0.24 | 99 | 1013.0 |
| 20260903140128 | 71 | 325 | 0.0 | 3.5 | 0.00 | 0.24 | 0.24 | 99 | 1013.6 |
| 20260903134628 | 71 | 220 | 3.5 | 8.7 | 0.02 | 0.24 | 0.24 | 99 | 1013.7 |
| 20260903133124 | 71 | 206 | 0.0 | 4.3 | 0.00 | 0.24 | 0.24 | 99 | 1013.7 |
| 20260903131619 | 71 | 300 | 0.0 | 1.7 | 0.00 | 0.24 | 0.24 | 99 | 1013.6 |
| 20260903130120 | 71 | 270 | 0.0 | 1.7 | 0.00 | 0.24 | 0.24 | 99 | 1013.7 |
| 20260903124619 | 70 | 204 | 1.7 | 3.5 | 0.00 | 0.24 | 0.24 | 99 | 1013.6 |
| 20260903123118 | 70 | 195 | 0.0 | 4.3 | 0.00 | 0.24 | 0.24 | 99 | 1013.7 |